Nor Easter — V7HF2 — position and weather

sailwx.info

Track history (hours):
 
Tides and Currents Weather Stations Pressure Air Temp Water Temp Dewpoint Dewpoint Depression Visibility Wind Speed Wind Dir Waves Ship Positions

Nor Easter

Last reported at 2014-Sep-29 04:12 UTC. Time now 2014-Dec-21 06:54 UTC.
Position N 47°40' W 052°36'.
Warning: this ship's position is months out of date.

Length 181 m; draft 8.7 m.

Type: Ship. MMSI: 538002219.

Date/timePositionNaut miles runAvg speedWind from/ knotsBaromVisibWave heightAir tempDewpointWater temp
2014-Sep-29 04:12N 47°40' W 052°36'7 9.9
2014-Sep-29 03:27N 47°34' W 052°42'0 0.5
2014-Sep-29 02:33N 47°34' W 052°42'0 0.0
2014-Sep-29 01:27N 47°34' W 052°42'0 0.0
2014-Sep-29 00:33N 47°34' W 052°42'0 0.0
2014-Sep-28 23:33N 47°34' W 052°42'0 0.0
2014-Sep-28 22:30N 47°34' W 052°42'0 0.0
2014-Sep-28 21:30N 47°34' W 052°42'0 0.0
2014-Sep-28 20:33N 47°34' W 052°42'0 0.0
2014-Sep-28 19:33N 47°34' W 052°42'0 0.0
2014-Sep-28 18:33N 47°34' W 052°42'0 0.0
2014-Sep-28 17:30N 47°34' W 052°42'0 0.0
2014-Sep-28 16:33N 47°34' W 052°42'0 0.0
2014-Sep-28 15:33N 47°34' W 052°42'0 0.0
2014-Sep-28 14:33N 47°34' W 052°42'0 0.0
2014-Sep-28 13:32N 47°34' W 052°42'0 0.0
2014-Sep-28 12:31N 47°34' W 052°42'0 0.3
2014-Sep-28 11:30N 47°34' W 052°42'6 6.3
2014-Sep-28 10:33N 47°33' W 052°33'6 5.4
2014-Sep-28 09:30N 47°28' W 052°28'6 6.0
2014-Sep-28 08:31N 47°24' W 052°33'7 7.0
2014-Sep-28 07:29N 47°16' W 052°35'  
Track history (hours):
 
Tides and Currents Weather Stations Pressure Air Temp Water Temp Dewpoint Dewpoint Depression Visibility Wind Speed Wind Dir Waves Ship Positions

Nor Easter

Last reported at 2014-Sep-29 04:12 UTC. Time now 2014-Dec-21 06:54 UTC.
Position N 47°40' W 052°36'.
Warning: this ship's position is months out of date.

Length 181 m; draft 8.7 m.

Type: Ship. MMSI: 538002219.

Date/timePositionNaut miles runAvg speedWind from/ knotsBaromVisibWave heightAir tempDewpointWater temp
2014-Sep-29 04:12N 47°40' W 052°36'7 9.9
2014-Sep-29 03:27N 47°34' W 052°42'0 0.5
2014-Sep-29 02:33N 47°34' W 052°42'0 0.0
2014-Sep-29 01:27N 47°34' W 052°42'0 0.0
2014-Sep-29 00:33N 47°34' W 052°42'0 0.0
2014-Sep-28 23:33N 47°34' W 052°42'0 0.0
2014-Sep-28 22:30N 47°34' W 052°42'0 0.0
2014-Sep-28 21:30N 47°34' W 052°42'0 0.0
2014-Sep-28 20:33N 47°34' W 052°42'0 0.0
2014-Sep-28 19:33N 47°34' W 052°42'0 0.0
2014-Sep-28 18:33N 47°34' W 052°42'0 0.0
2014-Sep-28 17:30N 47°34' W 052°42'0 0.0
2014-Sep-28 16:33N 47°34' W 052°42'0 0.0
2014-Sep-28 15:33N 47°34' W 052°42'0 0.0
2014-Sep-28 14:33N 47°34' W 052°42'0 0.0
2014-Sep-28 13:32N 47°34' W 052°42'0 0.0
2014-Sep-28 12:31N 47°34' W 052°42'0 0.3
2014-Sep-28 11:30N 47°34' W 052°42'6 6.3
2014-Sep-28 10:33N 47°33' W 052°33'6 5.4
2014-Sep-28 09:30N 47°28' W 052°28'6 6.0
2014-Sep-28 08:31N 47°24' W 052°33'7 7.0
2014-Sep-28 07:29N 47°16' W 052°35'  

Dump ship's entire track history